Time;durP1;ratioP1;P1;durP2;ratioP2;P2;SDS_P1;SDS_P2;PMS_P1;PMS_P2;Temp;Humidity;BMP_temperature;BMP_pressure;BME280_temperature;BME280_humidity;BME280_pressure;Samples;Min_cycle;Max_cycle;Signal;HPM_P1;HPM_P2
2024/02/27 00:01:53;;;;;;;7.72;2.85;;;;;;;3.35;100.00;101674.50;5038909;28;20040;-74
2024/02/27 00:04:19;;;;;;;8.15;2.92;;;;;;;3.41;100.00;101666.09;5039181;28;20067;-74
2024/02/27 00:06:44;;;;;;;11.07;3.30;;;;;;;3.47;100.00;101673.66;5039248;28;20029;-74
2024/02/27 00:09:14;;;;;;;6.05;2.70;;;;;;;3.51;100.00;101669.81;5038894;28;20359;-74
2024/02/27 00:11:41;;;;;;;3.70;2.03;;;;;;;3.58;100.00;101682.69;5040259;28;20469;-74
2024/02/27 00:14:07;;;;;;;6.35;2.50;;;;;;;3.63;100.00;101693.88;5055777;28;20029;-75
2024/02/27 00:16:33;;;;;;;6.55;2.30;;;;;;;3.66;100.00;101698.97;5055670;28;20040;-74
2024/02/27 00:18:59;;;;;;;3.55;2.00;;;;;;;3.69;100.00;101693.44;5039038;28;20119;-74
2024/02/27 00:21:24;;;;;;;4.72;2.35;;;;;;;3.71;100.00;101688.84;5038824;28;20037;-74
2024/02/27 00:23:50;;;;;;;5.93;2.03;;;;;;;3.73;100.00;101705.53;5039036;28;20028;-74
2024/02/27 00:26:16;;;;;;;3.95;1.98;;;;;;;3.72;100.00;101704.69;5039057;28;20032;-74
2024/02/27 00:28:41;;;;;;;3.47;2.00;;;;;;;3.73;100.00;101710.84;5038694;28;20363;-74
2024/02/27 00:31:07;;;;;;;3.13;1.63;;;;;;;3.76;100.00;101710.66;5038912;28;20131;-74
2024/02/27 00:33:33;;;;;;;8.15;2.28;;;;;;;3.80;100.00;101717.44;5055318;28;20017;-74
2024/02/27 00:36:01;;;;;;;6.97;2.40;;;;;;;3.81;100.00;101708.53;5038217;28;20131;-74
2024/02/27 00:38:27;;;;;;;5.18;1.90;;;;;;;3.80;100.00;101714.78;5055318;28;20489;-74
2024/02/27 00:40:53;;;;;;;5.20;2.38;;;;;;;3.78;100.00;101708.72;5039188;28;20124;-74
2024/02/27 00:43:18;;;;;;;6.10;2.08;;;;;;;3.77;100.00;101696.41;5038703;28;20423;-74
2024/02/27 00:45:44;;;;;;;7.75;2.78;;;;;;;3.73;100.00;101705.53;5038784;28;20186;-74
2024/02/27 00:48:10;;;;;;;6.68;1.90;;;;;;;3.73;100.00;101694.91;5039118;28;20108;-74
2024/02/27 00:50:35;;;;;;;6.60;2.50;;;;;;;3.70;100.00;101680.00;5038641;28;20481;-74
2024/02/27 00:53:01;;;;;;;9.23;2.70;;;;;;;3.71;100.00;101667.56;5039316;28;20038;-73
2024/02/27 00:55:27;;;;;;;6.57;2.53;;;;;;;3.73;100.00;101668.28;5042299;28;20036;-74
2024/02/27 00:57:52;;;;;;;2.80;2.20;;;;;;;3.75;100.00;101661.91;5041916;28;20032;-74
2024/02/27 01:00:18;;;;;;;5.78;2.22;;;;;;;3.79;100.00;101657.25;5042222;28;20391;-74
2024/02/27 01:02:44;;;;;;;5.65;1.75;;;;;;;3.83;100.00;101652.53;5042052;28;20036;-74
2024/02/27 01:05:09;;;;;;;6.82;1.85;;;;;;;3.88;100.00;101642.41;5042093;28;20043;-74
2024/02/27 01:07:35;;;;;;;7.43;2.00;;;;;;;3.88;100.00;101631.78;5058353;28;20487;-74
2024/02/27 01:10:03;;;;;;;8.55;1.80;;;;;;;3.99;100.00;101613.22;5025507;28;20021;-74
2024/02/27 01:12:29;;;;;;;5.95;1.67;;;;;;;4.06;100.00;101627.78;5041917;28;20032;-74
2024/02/27 01:14:54;;;;;;;5.53;1.60;;;;;;;4.13;100.00;101618.38;5041851;28;20036;-74
2024/02/27 01:17:20;;;;;;;6.28;1.90;;;;;;;4.19;100.00;101617.09;5041965;28;20051;-74
2024/02/27 01:19:46;;;;;;;3.28;1.50;;;;;;;4.23;100.00;101604.38;5041737;28;20478;-75
2024/02/27 01:22:12;;;;;;;5.80;1.50;;;;;;;4.21;100.00;101593.00;5041810;28;20109;-74
2024/02/27 01:24:38;;;;;;;2.38;1.30;;;;;;;4.21;100.00;101598.31;5025322;28;20043;-74
2024/02/27 01:27:04;;;;;;;4.93;1.40;;;;;;;4.24;100.00;101588.31;5058051;28;20037;-74
2024/02/27 01:29:30;;;;;;;2.80;1.35;;;;;;;4.27;100.00;101585.41;5058061;28;20059;-74
2024/02/27 01:31:56;;;;;;;4.00;1.40;;;;;;;4.32;100.00;101590.41;5041546;28;20056;-74
2024/02/27 01:34:24;;;;;;;4.93;1.30;;;;;;;4.34;100.00;101577.78;5025136;28;20037;-74
2024/02/27 01:36:49;;;;;;;3.80;1.38;;;;;;;4.35;100.00;101572.38;5041457;28;20115;-74
2024/02/27 01:39:15;;;;;;;6.22;1.38;;;;;;;4.38;100.00;101574.81;5041723;28;20123;-74
2024/02/27 01:41:47;;;;;;;4.63;1.42;;;;;;;4.47;100.00;101573.25;5074237;28;20016;-74
2024/02/27 01:44:13;;;;;;;6.15;1.25;;;;;;;4.58;100.00;101570.63;5057848;28;20548;-74
2024/02/27 01:46:39;;;;;;;2.58;1.27;;;;;;;4.68;100.00;101570.75;5024578;28;20063;-74
2024/02/27 01:49:05;;;;;;;4.05;1.38;;;;;;;4.74;100.00;101559.66;5041131;28;20024;-74
2024/02/27 01:51:31;;;;;;;4.72;0.88;;;;;;;4.79;100.00;101551.28;5057374;28;20103;-75
2024/02/27 01:53:58;;;;;;;1.17;0.82;;;;;;;4.80;100.00;101543.19;5041470;28;20074;-75
2024/02/27 01:56:25;;;;;;;2.58;1.45;;;;;;;4.79;100.00;101551.28;5024718;28;20115;-74
2024/02/27 01:58:50;;;;;;;3.78;1.15;;;;;;;4.78;100.00;101531.78;5041096;28;20035;-74
2024/02/27 02:01:18;;;;;;;3.42;1.10;;;;;;;4.77;100.00;101538.09;5041040;28;20526;-74
2024/02/27 02:03:45;;;;;;;3.05;1.20;;;;;;;4.74;100.00;101533.00;5057355;28;20032;-74
2024/02/27 02:06:10;;;;;;;4.47;1.50;;;;;;;4.74;100.00;101527.69;5057463;28;20028;-74
2024/02/27 02:08:37;;;;;;;4.30;1.13;;;;;;;4.76;100.00;101523.09;5073898;28;20024;-74
2024/02/27 02:11:05;;;;;;;3.15;0.90;;;;;;;4.75;100.00;101513.38;5057476;28;20028;-74
2024/02/27 02:13:31;;;;;;;2.95;1.15;;;;;;;4.76;100.00;101511.56;5073833;28;20035;-74
2024/02/27 02:15:57;;;;;;;2.88;0.85;;;;;;;4.82;100.00;101519.09;5040516;28;20036;-74
2024/02/27 02:18:22;;;;;;;4.00;1.25;;;;;;;4.87;100.00;101511.59;5040670;28;20117;-74
2024/02/27 02:20:48;;;;;;;2.20;0.85;;;;;;;4.90;100.00;101506.03;5057287;28;20047;-74
2024/02/27 02:23:14;;;;;;;4.03;1.15;;;;;;;4.97;100.00;101501.03;5040596;28;20048;-74
2024/02/27 02:25:40;;;;;;;4.13;1.30;;;;;;;5.03;100.00;101485.44;5040897;28;20043;-74
2024/02/27 02:28:08;;;;;;;3.97;1.23;;;;;;;5.09;100.00;101489.41;5057060;28;20032;-74
2024/02/27 02:30:33;;;;;;;3.03;1.00;;;;;;;5.13;100.00;101488.19;5056598;28;20028;-74
2024/02/27 02:32:59;;;;;;;5.13;1.38;;;;;;;5.19;100.00;101478.88;5040394;28;20037;-74
2024/02/27 02:35:24;;;;;;;2.35;0.80;;;;;;;5.17;100.00;101483.47;5056582;28;20021;-74
2024/02/27 02:37:50;;;;;;;2.58;0.98;;;;;;;5.17;100.00;101475.47;5040326;28;20032;-74
2024/02/27 02:40:17;;;;;;;7.72;1.10;;;;;;;5.21;100.00;101469.78;5040002;28;20086;-74
2024/02/27 02:42:43;;;;;;;4.68;1.23;;;;;;;5.32;100.00;101460.03;5040017;28;20024;-74
2024/02/27 02:45:09;;;;;;;4.90;1.98;;;;;;;5.37;100.00;101457.84;5040256;28;20484;-74
2024/02/27 02:47:35;;;;;;;3.33;1.05;;;;;;;5.40;100.00;101441.59;5040008;28;20031;-74
2024/02/27 02:50:01;;;;;;;3.72;1.20;;;;;;;5.39;100.00;101447.91;5056210;28;20020;-74
2024/02/27 02:52:27;;;;;;;2.83;1.33;;;;;;;5.36;100.00;101448.16;5040135;28;20029;-74
2024/02/27 02:54:53;;;;;;;4.97;1.20;;;;;;;5.29;100.00;101442.47;5056583;28;20040;-74
2024/02/27 02:57:18;;;;;;;4.47;1.17;;;;;;;5.24;100.00;101439.34;5039991;28;20031;-74
2024/02/27 02:59:44;;;;;;;2.28;1.17;;;;;;;5.21;100.00;101420.91;5040152;28;20336;-74
2024/02/27 03:02:10;;;;;;;3.88;1.30;;;;;;;5.22;100.00;101415.47;5039919;28;20397;-74
2024/02/27 03:04:36;;;;;;;2.13;1.02;;;;;;;5.29;100.00;101410.47;5039551;28;20090;-74
2024/02/27 03:07:02;;;;;;;7.40;1.80;;;;;;;5.30;100.00;101409.53;5072852;28;20024;-74
2024/02/27 03:09:28;;;;;;;5.20;1.10;;;;;;;5.31;100.00;101402.34;5039401;28;20102;-74
2024/02/27 03:11:54;;;;;;;5.45;1.10;;;;;;;5.33;100.00;101403.94;5039645;28;20024;-74
2024/02/27 03:14:19;;;;;;;6.63;1.38;;;;;;;5.34;100.00;101402.09;5039715;28;20047;-74
2024/02/27 03:16:45;;;;;;;2.83;1.20;;;;;;;5.37;100.00;101393.84;5038931;28;20055;-74
2024/02/27 03:19:12;;;;;;;10.30;1.70;;;;;;;5.40;100.00;101401.59;5039623;28;20090;-74
2024/02/27 03:21:38;;;;;;;3.00;1.52;;;;;;;5.42;100.00;101386.31;5055928;28;20059;-74
2024/02/27 03:24:04;;;;;;;4.50;1.30;;;;;;;5.38;100.00;101383.06;5039555;28;20035;-74
2024/02/27 03:26:30;;;;;;;4.60;1.30;;;;;;;5.40;100.00;101374.91;5039496;28;20024;-74
2024/02/27 03:28:57;;;;;;;4.03;1.48;;;;;;;5.37;100.00;101369.84;5055884;28;20032;-74
2024/02/27 03:31:22;;;;;;;3.05;1.08;;;;;;;5.39;100.00;101367.91;5055955;28;20455;-74
2024/02/27 03:33:48;;;;;;;5.10;1.15;;;;;;;5.42;100.00;101359.66;5039367;28;20043;-74
2024/02/27 03:36:13;;;;;;;2.97;1.23;;;;;;;5.43;100.00;101364.88;5055768;28;20036;-74
2024/02/27 03:38:40;;;;;;;2.72;1.10;;;;;;;5.46;100.00;101351.28;5039493;28;20043;-74
2024/02/27 03:41:11;;;;;;;4.00;1.38;;;;;;;5.46;100.00;101339.75;5039530;28;20036;-74
2024/02/27 03:43:37;;;;;;;5.35;1.40;;;;;;;5.48;100.00;101338.66;5040002;28;20025;-73
2024/02/27 03:46:03;;;;;;;3.10;1.23;;;;;;;5.49;100.00;101337.66;5039707;28;20473;-74
2024/02/27 03:48:28;;;;;;;6.38;1.50;;;;;;;5.53;100.00;101334.75;5039012;28;20024;-73
2024/02/27 03:50:54;;;;;;;4.63;1.52;;;;;;;5.55;100.00;101338.13;5039229;28;20118;-73
2024/02/27 03:53:20;;;;;;;5.80;1.55;;;;;;;5.57;100.00;101337.03;5039283;28;20131;-74
2024/02/27 03:55:45;;;;;;;4.43;1.80;;;;;;;5.59;100.00;101332.41;5055810;28;20041;-74
2024/02/27 03:58:11;;;;;;;2.35;1.10;;;;;;;5.58;100.00;101333.38;5039195;28;20063;-74
2024/02/27 04:00:36;;;;;;;3.80;1.00;;;;;;;5.56;100.00;101315.81;5039321;28;20032;-74
2024/02/27 04:03:02;;;;;;;6.50;1.42;;;;;;;5.54;100.00;101318.63;5055804;28;20433;-74
2024/02/27 04:05:28;;;;;;;5.93;1.30;;;;;;;5.50;100.00;101322.50;5039234;28;20415;-73
2024/02/27 04:07:54;;;;;;;5.45;1.40;;;;;;;5.46;100.00;101316.59;5039049;28;20115;-74
2024/02/27 04:10:19;;;;;;;4.85;1.50;;;;;;;5.47;100.00;101306.75;5039184;28;20040;-74
2024/02/27 04:12:46;;;;;;;3.95;1.33;;;;;;;5.52;100.00;101296.56;5071922;28;20024;-73
2024/02/27 04:15:11;;;;;;;4.55;1.80;;;;;;;5.54;100.00;101285.78;5039101;28;20573;-74
2024/02/27 04:17:37;;;;;;;7.93;1.40;;;;;;;5.54;100.00;101285.78;5039103;28;20455;-73
2024/02/27 04:20:05;;;;;;;6.30;1.50;;;;;;;5.54;100.00;101281.28;5038993;28;20119;-73
2024/02/27 04:22:31;;;;;;;4.45;1.20;;;;;;;5.54;100.00;101267.94;5039317;28;20034;-74
2024/02/27 04:24:57;;;;;;;4.05;1.15;;;;;;;5.58;100.00;101265.84;5039152;28;20032;-74
2024/02/27 04:27:23;;;;;;;6.82;1.80;;;;;;;5.58;100.00;101274.69;5056517;28;20451;-74
2024/02/27 04:29:49;;;;;;;2.65;1.00;;;;;;;5.57;100.00;101273.00;5075997;28;20466;-74
2024/02/27 04:32:15;;;;;;;5.63;1.40;;;;;;;5.48;100.00;101263.97;5042647;28;20126;-74
2024/02/27 04:34:42;;;;;;;3.28;1.35;;;;;;;5.39;100.00;101267.41;5059187;28;20462;-74
2024/02/27 04:37:09;;;;;;;3.30;1.05;;;;;;;5.37;100.00;101268.50;5059368;28;20064;-74
2024/02/27 04:39:35;;;;;;;5.30;1.58;;;;;;;5.38;100.00;101275.56;5075605;28;20041;-74
2024/02/27 04:42:01;;;;;;;4.80;1.55;;;;;;;5.42;100.00;101266.31;5058679;28;20024;-74
2024/02/27 04:44:26;;;;;;;4.65;1.45;;;;;;;5.44;100.00;101256.34;5042501;28;20029;-74
2024/02/27 04:46:52;;;;;;;4.20;1.35;;;;;;;5.45;100.00;101266.03;5042396;28;20035;-74
2024/02/27 04:49:18;;;;;;;4.05;1.55;;;;;;;5.46;100.00;101265.06;5042157;28;20082;-74
2024/02/27 04:51:44;;;;;;;4.03;1.23;;;;;;;5.51;100.00;101268.19;5042439;28;20036;-74
2024/02/27 04:54:10;;;;;;;3.88;1.25;;;;;;;5.52;100.00;101259.22;5042368;28;20518;-74
2024/02/27 04:56:40;;;;;;;3.65;1.20;;;;;;;5.56;100.00;101263.31;5042193;28;20131;-73
2024/02/27 04:59:07;;;;;;;3.05;1.05;;;;;;;5.58;100.00;101260.50;5075110;28;20056;-74
2024/02/27 05:01:32;;;;;;;5.63;1.50;;;;;;;5.55;100.00;101245.59;5042184;28;20458;-74
2024/02/27 05:03:58;;;;;;;9.50;1.20;;;;;;;5.58;100.00;101252.50;5042117;28;20035;-74
2024/02/27 05:06:23;;;;;;;4.43;1.30;;;;;;;5.62;100.00;101244.13;5041801;28;20032;-74
2024/02/27 05:08:49;;;;;;;4.82;1.08;;;;;;;5.70;100.00;101243.47;5041793;28;20378;-74
2024/02/27 05:11:15;;;;;;;8.07;1.48;;;;;;;5.72;100.00;101236.19;5058070;28;20024;-73
2024/02/27 05:13:40;;;;;;;4.10;1.40;;;;;;;5.78;100.00;101237.47;5041680;28;20068;-74
2024/02/27 05:16:10;;;;;;;5.13;1.48;;;;;;;5.80;100.00;101232.84;5058502;28;20362;-74
2024/02/27 05:18:36;;;;;;;3.45;1.42;;;;;;;5.77;100.00;101227.75;5041935;28;20060;-74
2024/02/27 05:21:05;;;;;;;4.10;1.20;;;;;;;5.70;100.00;101225.63;5025282;28;20067;-74
2024/02/27 05:23:33;;;;;;;5.95;1.48;;;;;;;5.66;100.00;101218.88;5041503;28;20374;-74
2024/02/27 05:25:58;;;;;;;5.35;1.42;;;;;;;5.60;100.00;101219.38;5057732;28;20029;-74
2024/02/27 05:28:25;;;;;;;5.65;1.60;;;;;;;5.57;100.00;101211.66;5041483;28;20024;-74
2024/02/27 05:30:52;;;;;;;4.55;1.30;;;;;;;5.54;100.00;101211.91;5041654;28;20036;-74
2024/02/27 05:33:17;;;;;;;7.18;1.30;;;;;;;5.54;100.00;101200.41;5057867;28;20362;-74
2024/02/27 05:35:43;;;;;;;3.42;1.60;;;;;;;5.56;100.00;101198.44;5041507;28;20028;-74
2024/02/27 05:38:09;;;;;;;3.00;1.10;;;;;;;5.54;100.00;101198.59;5041595;28;20036;-74
2024/02/27 05:40:34;;;;;;;7.85;1.65;;;;;;;5.54;100.00;101197.75;5057262;28;20446;-74
2024/02/27 05:43:00;;;;;;;5.28;1.13;;;;;;;5.54;100.00;101200.41;5041849;28;20036;-74
2024/02/27 05:45:26;;;;;;;3.85;1.50;;;;;;;5.54;100.00;101203.91;5040972;28;20359;-74
2024/02/27 05:47:52;;;;;;;4.57;1.65;;;;;;;5.50;100.00;101190.00;5057321;28;20103;-75
2024/02/27 05:50:17;;;;;;;3.92;1.30;;;;;;;5.53;100.00;101194.25;5041118;28;20040;-74
2024/02/27 05:52:43;;;;;;;2.22;1.05;;;;;;;5.54;100.00;101193.25;5041184;28;20032;-75
2024/02/27 05:55:09;;;;;;;8.15;1.17;;;;;;;5.57;100.00;101194.81;5041044;28;20028;-74
2024/02/27 05:57:34;;;;;;;7.30;1.50;;;;;;;5.53;100.00;101188.03;5040978;28;20120;-74
2024/02/27 06:00:00;;;;;;;3.38;1.25;;;;;;;5.57;100.00;101192.97;5073756;28;20123;-74
2024/02/27 06:02:26;;;;;;;2.42;1.27;;;;;;;5.55;100.00;101189.59;5057348;28;20059;-74
2024/02/27 06:04:51;;;;;;;5.03;1.58;;;;;;;5.54;100.00;101184.41;5073972;28;20504;-73
2024/02/27 06:07:17;;;;;;;4.35;1.02;;;;;;;5.51;100.00;101170.34;5056899;28;20473;-73
2024/02/27 06:09:42;;;;;;;5.32;1.40;;;;;;;5.55;100.00;101178.09;5040810;28;20047;-74
2024/02/27 06:12:08;;;;;;;4.05;1.02;;;;;;;5.53;100.00;101170.22;5040817;28;20032;-74
2024/02/27 06:14:34;;;;;;;3.42;1.27;;;;;;;5.53;100.00;101169.38;5040626;28;20029;-74
2024/02/27 06:17:00;;;;;;;5.35;1.42;;;;;;;5.53;100.00;101167.56;5073441;28;20029;-74
2024/02/27 06:19:26;;;;;;;4.57;1.33;;;;;;;5.51;100.00;101153.50;5040660;28;20039;-74
2024/02/27 06:22:10;;;;;;;0.80;0.73;;;;;;;5.57;100.00;101149.47;5040767;28;20036;-74
2024/02/27 06:24:39;;;;;;;7.30;0.90;;;;;;;5.72;100.00;101148.97;5059281;28;20332;-74
2024/02/27 06:27:08;;;;;;;1.67;0.82;;;;;;;5.83;100.00;101147.19;5073240;28;20081;-74
2024/02/27 06:29:33;;;;;;;0.40;0.40;;;;;;;5.96;100.00;101141.63;5073370;28;20025;-75
2024/02/27 06:31:59;;;;;;;1.33;0.60;;;;;;;6.07;100.00;101133.50;5073698;28;20028;-75
2024/02/27 06:34:25;;;;;;;0.75;0.75;;;;;;;6.19;100.00;101126.22;5056946;28;20470;-74
2024/02/27 06:36:53;;;;;;;1.60;0.68;;;;;;;6.28;100.00;101114.72;5073713;28;20025;-75
2024/02/27 06:39:20;;;;;;;0.40;0.40;;;;;;;6.42;100.00;101111.63;5040475;28;20458;-74
2024/02/27 06:41:50;;;;;;;2.67;1.00;;;;;;;6.50;100.00;101106.41;5040178;28;20040;-74
2024/02/27 06:44:18;;;;;;;3.00;0.90;;;;;;;6.53;100.00;101102.63;5056402;28;20417;-74
2024/02/27 06:46:44;;;;;;;4.13;0.90;;;;;;;6.46;100.00;101102.34;5040193;28;20032;-74
2024/02/27 06:49:10;;;;;;;1.80;0.88;;;;;;;6.41;100.00;101098.41;5039842;28;20115;-75
2024/02/27 06:51:41;;;;;;;4.28;1.50;;;;;;;6.34;100.00;101092.78;5038840;28;20370;-75
2024/02/27 06:54:06;;;;;;;0.85;0.50;;;;;;;6.33;100.00;101093.78;5057269;28;20366;-74
2024/02/27 06:56:32;;;;;;;0.57;0.57;;;;;;;6.34;100.00;101088.28;5057243;28;20028;-74
2024/02/27 06:58:58;;;;;;;0.70;0.63;;;;;;;6.37;100.00;101084.47;5039987;28;20370;-75
2024/02/27 07:01:23;;;;;;;0.80;0.80;;;;;;;6.43;100.00;101077.72;5056500;28;20444;-75
2024/02/27 07:03:50;;;;;;;2.17;1.02;;;;;;;6.50;100.00;101082.38;5039907;28;20070;-74
2024/02/27 07:06:16;;;;;;;1.20;0.70;;;;;;;6.57;100.00;101071.97;5056062;28;20025;-74
2024/02/27 07:08:41;;;;;;;3.08;0.60;;;;;;;6.69;100.00;101069.97;5039635;28;20032;-75
2024/02/27 07:11:08;;;;;;;0.40;0.40;;;;;;;6.78;100.00;101066.47;5057142;28;20024;-75
2024/02/27 07:13:34;;;;;;;3.97;0.80;;;;;;;6.89;100.00;101066.28;5056207;28;20021;-75
2024/02/27 07:16:01;;;;;;;0.60;0.60;;;;;;;7.00;100.00;101062.59;5072969;28;20029;-74
2024/02/27 07:18:27;;;;;;;0.82;0.50;;;;;;;7.11;100.00;101064.25;5039560;28;20033;-75
2024/02/27 07:20:55;;;;;;;2.63;0.63;;;;;;;7.16;100.00;101056.63;5039543;28;20032;-75
2024/02/27 07:23:20;;;;;;;0.98;0.70;;;;;;;7.17;100.00;101059.19;5055838;28;20052;-75
2024/02/27 07:25:46;;;;;;;0.50;0.50;;;;;;;7.20;100.00;101044.69;5039975;28;20075;-75
2024/02/27 07:28:12;;;;;;;0.50;0.50;;;;;;;7.23;100.00;101049.72;5055861;28;20058;-75
2024/02/27 07:30:38;;;;;;;0.68;0.65;;;;;;;7.26;100.00;101060.13;5039419;28;20476;-75
2024/02/27 07:33:04;;;;;;;0.50;0.50;;;;;;;7.26;100.00;101054.78;5039551;28;20040;-75
2024/02/27 07:35:30;;;;;;;0.50;0.50;;;;;;;7.29;100.00;101050.97;5023048;28;20029;-75
2024/02/27 07:37:55;;;;;;;0.98;0.52;;;;;;;7.34;100.00;101049.53;5039440;28;20128;-75
2024/02/27 07:40:21;;;;;;;0.63;0.63;;;;;;;7.36;100.00;101044.88;5039347;28;20032;-75
2024/02/27 07:42:47;;;;;;;0.50;0.50;;;;;;;7.37;100.00;101045.72;5055929;28;20025;-75
2024/02/27 07:45:13;;;;;;;0.50;0.50;;;;;;;7.42;100.00;101046.94;5039241;28;20028;-75
2024/02/27 07:47:40;;;;;;;0.50;0.50;;;;;;;7.45;100.00;101045.81;5039062;28;20077;-75
2024/02/27 07:50:07;;;;;;;0.50;0.50;;;;;;;7.49;100.00;101053.41;5072338;28;20020;-74
2024/02/27 07:52:34;;;;;;;0.50;0.50;;;;;;;7.49;100.00;101045.38;5072000;28;20032;-75
2024/02/27 07:55:00;;;;;;;0.43;0.43;;;;;;;7.51;100.00;101039.03;5039268;28;20028;-75
2024/02/27 07:57:26;;;;;;;0.40;0.40;;;;;;;7.52;100.00;101041.56;5038994;28;20032;-75
2024/02/27 07:59:52;;;;;;;0.40;0.40;;;;;;;7.54;100.00;101028.00;5055887;28;20024;-75
2024/02/27 08:02:18;;;;;;;0.60;0.60;;;;;;;7.59;100.00;101023.06;5040274;28;20039;-75
2024/02/27 08:04:43;;;;;;;0.40;0.40;;;;;;;7.63;100.00;101017.25;5059866;28;20025;-75
2024/02/27 08:07:09;;;;;;;0.50;0.50;;;;;;;7.66;100.00;101019.63;5059687;28;20036;-75
2024/02/27 08:09:35;;;;;;;0.50;0.50;;;;;;;7.72;100.00;101021.69;5075844;28;20020;-75
2024/02/27 08:12:00;;;;;;;0.50;0.50;;;;;;;7.73;100.00;101019.91;5059591;28;20036;-76
2024/02/27 08:14:29;;;;;;;4.38;1.63;;;;;;;7.80;100.00;101009.41;5059243;28;20103;-75
2024/02/27 08:16:57;;;;;;;0.40;0.40;;;;;;;7.83;100.00;101015.31;5059606;28;20023;-75
2024/02/27 08:19:24;;;;;;;0.50;0.50;;;;;;;7.83;100.00;101011.78;5075711;28;20028;-75
2024/02/27 08:21:50;;;;;;;0.50;0.50;;;;;;;7.83;100.00;101007.28;5027058;28;20098;-75
2024/02/27 08:24:16;;;;;;;0.50;0.50;;;;;;;7.85;100.00;101004.44;5042871;28;20088;-75
2024/02/27 08:26:44;;;;;;;0.75;0.75;;;;;;;7.91;100.00;101009.19;5043363;28;20086;-75
2024/02/27 08:29:09;;;;;;;0.47;0.47;;;;;;;7.95;100.00;101004.38;5059431;28;20087;-75
2024/02/27 08:31:35;;;;;;;0.57;0.57;;;;;;;7.98;100.00;101009.41;5075508;28;20028;-75
2024/02/27 08:34:04;;;;;;;0.70;0.68;;;;;;;8.02;100.00;101006.28;5042724;28;20528;-75
2024/02/27 08:36:35;;;;;;;0.50;0.50;;;;;;;8.05;100.00;100992.59;5059681;28;20031;-76
2024/02/27 08:39:01;;;;;;;0.47;0.47;;;;;;;8.09;100.00;101001.97;5059406;28;20466;-75
2024/02/27 08:41:28;;;;;;;0.57;0.57;;;;;;;8.16;100.00;101002.22;5059297;28;20025;-76
2024/02/27 08:43:53;;;;;;;1.85;0.98;;;;;;;8.17;100.00;101005.75;5058842;28;20098;-75
2024/02/27 08:46:19;;;;;;;0.50;0.50;;;;;;;8.27;100.00;101001.97;5059219;28;20058;-75
2024/02/27 08:48:46;;;;;;;1.60;0.90;;;;;;;8.34;100.00;101000.38;5042314;28;20455;-75
2024/02/27 08:51:11;;;;;;;0.50;0.50;;;;;;;8.34;100.00;101000.38;5058842;28;20025;-75
2024/02/27 08:53:38;;;;;;;0.50;0.50;;;;;;;8.43;100.00;100998.63;5042304;28;20066;-75
2024/02/27 08:56:06;;;;;;;1.27;1.15;;;;;;;8.48;100.00;100995.47;5042160;28;20033;-75
2024/02/27 08:58:33;;;;;;;0.85;0.85;;;;;;;8.50;100.00;101004.22;5042438;28;20024;-76
2024/02/27 09:00:59;;;;;;;0.45;0.45;;;;;;;8.57;100.00;101006.13;5058286;28;20025;-76
2024/02/27 09:03:25;;;;;;;0.93;0.77;;;;;;;8.74;100.00;101006.22;5042098;28;20039;-76
2024/02/27 09:05:51;;;;;;;0.50;0.50;;;;;;;8.71;100.00;101002.00;5041997;28;20044;-76
2024/02/27 09:08:17;;;;;;;0.40;0.40;;;;;;;8.74;100.00;101003.53;5058589;28;20451;-75
2024/02/27 09:10:46;;;;;;;0.68;0.60;;;;;;;8.90;100.00;101000.13;5042007;28;20028;-75
2024/02/27 09:13:12;;;;;;;0.60;0.60;;;;;;;8.96;100.00;100994.09;5041544;28;20043;-76
2024/02/27 09:15:37;;;;;;;0.60;0.60;;;;;;;9.25;100.00;100997.25;5057915;28;20411;-75
2024/02/27 09:18:03;;;;;;;0.60;0.60;;;;;;;9.28;100.00;100997.94;5041852;28;20032;-76
2024/02/27 09:20:31;;;;;;;0.60;0.60;;;;;;;9.57;100.00;100997.53;5041628;28;20039;-76
2024/02/27 09:22:59;;;;;;;0.40;0.40;;;;;;;9.55;100.00;100999.53;5058218;28;20021;-76
2024/02/27 09:25:25;;;;;;;0.50;0.50;;;;;;;9.49;100.00;100990.31;5041708;28;20024;-76
2024/02/27 09:27:51;;;;;;;0.40;0.40;;;;;;;9.49;100.00;101002.88;5058180;28;20029;-76
2024/02/27 09:30:17;;;;;;;0.60;0.60;;;;;;;9.51;100.00;100993.66;5074480;28;20069;-76
2024/02/27 09:32:42;;;;;;;0.50;0.50;;;;;;;9.54;100.00;100987.13;5058159;28;20028;-76
2024/02/27 09:35:08;;;;;;;0.40;0.40;;;;;;;9.65;100.00;101001.09;5041524;28;20033;-75
2024/02/27 09:37:37;;;;;;;0.40;0.40;;;;;;;9.81;100.00;100994.91;5042024;28;20032;-76
2024/02/27 09:40:03;;;;;;;0.98;0.55;;;;;;;9.89;100.00;100999.47;5041567;28;20486;-75
2024/02/27 09:42:30;;;;;;;0.50;0.50;;;;;;;10.07;100.00;101005.53;5058106;28;20035;-76
2024/02/27 09:44:58;;;;;;;0.63;0.63;;;;;;;10.21;100.00;101005.88;5058527;28;20032;-76
2024/02/27 09:47:25;;;;;;;0.40;0.40;;;;;;;10.33;100.00;101010.78;5041104;28;20470;-76
2024/02/27 09:49:52;;;;;;;0.50;0.50;;;;;;;10.33;100.00;101004.56;5041348;28;20085;-76
2024/02/27 09:52:19;;;;;;;0.85;0.45;;;;;;;10.56;100.00;101013.63;5057780;28;20021;-76
2024/02/27 09:54:46;;;;;;;0.50;0.50;;;;;;;10.47;100.00;101011.13;5041208;28;20032;-76
2024/02/27 09:57:12;;;;;;;0.50;0.50;;;;;;;10.29;100.00;101016.66;5024720;28;20375;-76
2024/02/27 09:59:39;;;;;;;0.77;0.60;;;;;;;10.16;100.00;101011.78;5041292;28;20477;-76
2024/02/27 10:02:07;;;;;;;0.40;0.40;;;;;;;10.07;100.00;101010.06;5058694;28;20063;-76
2024/02/27 10:04:35;;;;;;;0.50;0.50;;;;;;;10.05;100.00;101010.22;5056994;28;20028;-75
2024/02/27 10:07:04;;;;;;;0.50;0.50;;;;;;;10.41;100.00;101012.63;5073988;28;20040;-76
2024/02/27 10:09:34;;;;;;;0.65;0.65;;;;;;;10.55;100.00;101009.25;5024192;28;20181;-76
2024/02/27 10:12:01;;;;;;;2.47;0.85;;;;;;;10.56;100.00;101007.44;5041930;28;20363;-76
2024/02/27 10:14:32;;;;;;;0.65;0.63;;;;;;;10.82;100.00;101022.50;5040730;28;20032;-76
2024/02/27 10:16:59;;;;;;;2.42;0.93;;;;;;;10.97;100.00;101013.56;5073527;28;20024;-76
2024/02/27 10:19:29;;;;;;;1.63;0.85;;;;;;;10.84;100.00;101029.38;5073745;28;20040;-76
2024/02/27 10:21:56;;;;;;;1.48;0.90;;;;;;;10.63;100.00;101032.59;5040758;28;20036;-76
2024/02/27 10:24:25;;;;;;;2.20;0.70;;;;;;;10.57;100.00;101031.44;5073697;28;20016;-76
2024/02/27 10:26:53;;;;;;;1.13;0.82;;;;;;;10.38;100.00;101033.66;5057072;28;20032;-76
2024/02/27 10:29:20;;;;;;;2.25;0.88;;;;;;;10.29;100.00;101038.16;5040275;28;20039;-76
2024/02/27 10:31:45;;;;;;;1.90;0.95;;;;;;;9.99;100.00;101039.59;5073234;28;20056;-76
2024/02/27 10:34:13;;;;;;;0.70;0.70;;;;;;;9.86;100.00;101046.28;5040698;28;20050;-76
2024/02/27 10:36:39;;;;;;;1.80;1.20;;;;;;;9.73;100.00;101050.44;5040644;28;20371;-76
2024/02/27 10:39:09;;;;;;;5.30;1.75;;;;;;;9.67;100.00;101051.94;5040034;28;20036;-76
2024/02/27 10:41:44;;;;;;;1.83;1.08;;;;;;;9.71;100.00;101055.13;5056868;28;20404;-76
2024/02/27 10:44:09;;;;;;;2.97;1.02;;;;;;;9.67;100.00;101074.25;5040273;28;20122;-76
2024/02/27 10:46:38;;;;;;;2.15;1.13;;;;;;;9.83;100.00;101078.84;5072904;28;20044;-76
2024/02/27 10:49:04;;;;;;;1.42;0.90;;;;;;;9.80;100.00;101078.34;5024684;28;20397;-76
2024/02/27 10:51:38;;;;;;;3.33;1.40;;;;;;;9.74;100.00;101090.56;5074391;28;20017;-76
2024/02/27 10:54:04;;;;;;;2.08;1.00;;;;;;;9.82;100.00;101095.97;5040533;28;20032;-76
2024/02/27 10:56:30;;;;;;;1.00;0.82;;;;;;;10.00;100.00;101111.13;5057192;28;20542;-76
2024/02/27 10:58:56;;;;;;;1.38;0.82;;;;;;;9.71;100.00;101103.47;5073091;28;20119;-76
2024/02/27 11:01:22;;;;;;;3.25;1.70;;;;;;;9.52;100.00;101099.19;5056276;28;20064;-76
2024/02/27 11:03:53;;;;;;;5.90;1.77;;;;;;;9.90;100.00;101108.59;5023973;28;20040;-76
2024/02/27 11:06:23;;;;;;;3.53;1.67;;;;;;;10.02;100.00;101114.50;5072681;28;20025;-76
2024/02/27 11:09:03;;;;;;;4.18;1.52;;;;;;;9.66;100.00;101107.50;5056391;28;20032;-76
2024/02/27 11:11:29;;;;;;;6.40;1.70;;;;;;;9.75;100.00;101119.09;5056436;28;20029;-76
2024/02/27 11:14:03;;;;;;;12.55;2.58;;;;;;;11.25;100.00;101117.28;5039649;28;20036;-76
2024/02/27 11:16:28;;;;;;;;;;;;;;;11.69;100.00;101123.03;5056605;28;20043;-75
2024/02/27 11:18:58;;;;;;;6.90;2.15;;;;;;;11.82;100.00;101128.69;5056209;28;19904;-76
2024/02/27 11:21:24;;;;;;;4.55;2.15;;;;;;;12.06;100.00;101126.94;5039244;28;20077;-76